エカテリンブルク の空港の天気 - METARとTAF

コルツォヴォ空港 ( USSS / SVX ) - ロシア エカテリンブルク
飛行場実況気象(Metar)
観測時間05/27 08:00 YEKT (05/27 03:00 UTC)
風向・風速東南東 5m/s
視程10km以上
天気現象
なし
気温14℃
湿度72%
気圧1030hPa
METARUSSS 270300Z 12005MPS CAVOK 14/09 Q1030 R08L/010060 NOSIG RMK QFE752/1003
過去の天気等 Google飛行場航空写真 Wunderground天気予報

過去48時間のMETAR

飛行場予報(TAF)
発表時間: 5/27 06:56 YEKT (5/27 01:56 UTC)
予報対象時間: 27日8時 YEKT ~ 28日8時 YEKT
風向・風速東南東 3m/s 瞬間風速 10m/s
視程10km以上
なし
27日9時 YEKT ~ 27日20時 YEKT に一時的に
風向・風速南東 5m/s 瞬間風速 15m/s
27日20時 YEKT から
風向・風速南南東 3m/s 瞬間風速 13m/s
視程6000m
天気現象弱いしゅう雨
全天の8割程度の積乱雲 雲底高度 490m
27日21時 YEKT ~ 28日8時 YEKT に一時的に
天気現象弱い雷雨
全天の4割程度の積乱雲 雲底高度 340m
TAF USSS 270156Z 2703/2803 12003G10MPS CAVOK
TEMPO 2704/2715 14005G15MPS
FM271500 16003G13MPS 6000 -SHRA BKN016CB
TEMPO 2716/2803 -TSRA SCT011CB